KSHV/SHV METAR and TAF weather

Enter ICAO airport designator
Station Type Date Time Source
KSHV METAR 2022/06/27 16:56 UTC NOAA

KSHV 271656Z VRB03KT 10SM BKN033 BKN280 31/21 A3015 RMK AO2 SLP205 T03110211


Station Type Date Time Source
KSHV Decoded METAR 2022/06/27 16:56 UTC NOAA

SHREVEPORT REGIONAL AIRPORT, LA, United States (KSHV) 32-27N 93-50W 80M
Jun 27, 2022 - 12:56 PM EDT / 2022.06.27 1656 UTC
Wind: Variable at 3 MPH (3 KT):0
Visibility: 10 mile(s):0
Sky conditions: mostly cloudy
Temperature: 88.0 F (31.1 C)
Dew Point: 70.0 F (21.1 C)
Relative Humidity: 55%
Pressure (altimeter): 30.15 in. Hg (1020 hPa)
ob: KSHV 271656Z VRB03KT 10SM BKN033 BKN280 31/21 A3015 RMK AO2 SLP205 T03110211
cycle: 17

Station Type Date Time Source
KSHV TAF 2022/06/27 18:22 UTC NOAA

TAF KSHV 271720Z 2718/2818 03010G16KT P6SM BKN035 BKN280
FM280000 05010KT P6SM BKN250
FM280500 05006KT P6SM BKN250
FM281200 02004KT P6SM SCT250
FM281500 05012KT P6SM SCT250

Example: see airport list